Terminal Aerodrome Forecast
Issued by NWS

Home | Current Version | Previous Version | Text Only | Print | Product List | Glossary On
Versions: 1 2 3 4 5 6 7 8 9 10 11 12 13 14 15 16
000
FTUS45 KLKN 190100 AAA
TAFELY
TAF AMD
KELY 190107Z 1901/1924 04013KT P6SM VCSH SCT070 BKN090
     FM190200 18008KT P6SM VCSH BKN080
     FM191900 24009KT P6SM VCTS BKN080CB=

USA.gov is the U.S. government's official web portal to all federal, state and local government web resources and services.